Archival Weather

Sydney Intl

Sydney, Australia (YSSY)

Report from: Saturday, March 18, 2023 2:30 AM AEDT
Current time: Saturday, June 22, 2024 10:23 AM AEST

Current weather – Weather history – Daily summaries
Weather forecast

Temperature23.0°C (73.4°F)
Dew point20.0°C (68.0°F)
Winds 9 kts (4.6 m/s, 10.4 mph) North (10°)
Visibility6.2 mi. (10 km)
Clouds Few clouds 1,800 ft. (549 m)
Altimeter30.03 in.Hg (1017 mB)
Relative humidity83 %
Density altitude1,121 ft. (342 m)
Flight conditions Visual Meteorological Conditions
Raw dataYSSY 171530Z 01009KT 9999 FEW018 23/20 Q1017
An error has occurred. This application may no longer respond until reloaded. Reload 🗙